Time;durP1;ratioP1;P1;durP2;ratioP2;P2;SDS_P1;SDS_P2;PMS_P1;PMS_P2;Temp;Humidity;BMP_temperature;BMP_pressure;BME280_temperature;BME280_humidity;BME280_pressure;Samples;Min_cycle;Max_cycle;Signal;HPM_P1;HPM_P2
2021/05/02 00:00:28;;;;;;;1.70;1.60;;;23.10;31.90;;;;;;5053077;28;20274;-46
2021/05/02 00:02:54;;;;;;;1.95;1.50;;;23.10;31.90;;;;;;5052372;28;20197;-48
2021/05/02 00:05:20;;;;;;;1.83;1.73;;;23.10;31.80;;;;;;5058772;28;20216;-45
2021/05/02 00:07:46;;;;;;;1.67;1.57;;;23.10;31.80;;;;;;5052625;28;20548;-42
2021/05/02 00:10:12;;;;;;;1.50;1.40;;;23.10;31.80;;;;;;5055431;28;20213;-45
2021/05/02 00:12:38;;;;;;;1.80;1.60;;;23.10;31.70;;;;;;5054260;28;20198;-47
2021/05/02 00:15:04;;;;;;;2.17;1.60;;;23.10;31.80;;;;;;5052631;28;20248;-49
2021/05/02 00:17:30;;;;;;;2.58;1.90;;;23.10;31.80;;;;;;5056208;28;20621;-43
2021/05/02 00:19:56;;;;;;;2.63;1.57;;;23.10;31.80;;;;;;5053457;28;20263;-45
2021/05/02 00:22:22;;;;;;;1.50;1.40;;;23.10;31.80;;;;;;5051631;28;20274;-42
2021/05/02 00:24:47;;;;;;;1.87;1.60;;;23.10;31.70;;;;;;5052585;28;20194;-46
2021/05/02 00:27:13;;;;;;;1.60;1.50;;;23.10;31.80;;;;;;5059986;28;20235;-43
2021/05/02 00:29:39;;;;;;;2.08;1.83;;;23.10;31.70;;;;;;5062721;28;20208;-45
2021/05/02 00:32:05;;;;;;;2.00;1.80;;;23.10;31.70;;;;;;5055707;28;20197;-47
2021/05/02 00:34:31;;;;;;;1.60;1.50;;;23.10;31.70;;;;;;5052308;28;20838;-49
2021/05/02 00:36:57;;;;;;;1.63;1.52;;;23.10;31.80;;;;;;5055583;28;20201;-55
2021/05/02 00:39:23;;;;;;;2.40;1.50;;;23.10;31.80;;;;;;5069349;28;20676;-43
2021/05/02 00:41:49;;;;;;;1.60;1.50;;;23.10;32.00;;;;;;5054393;28;20220;-41
2021/05/02 00:44:15;;;;;;;1.60;1.50;;;23.10;31.80;;;;;;5072597;28;20209;-50
2021/05/02 00:46:41;;;;;;;1.60;1.50;;;23.10;31.80;;;;;;5062712;28;20202;-50
2021/05/02 00:49:07;;;;;;;1.50;1.40;;;23.10;32.70;;;;;;5071273;28;20201;-46
2021/05/02 00:51:33;;;;;;;1.60;1.50;;;23.10;31.80;;;;;;5053485;28;20673;-49
2021/05/02 00:53:59;;;;;;;1.50;1.40;;;23.10;31.80;;;;;;5051329;28;20225;-51
2021/05/02 00:56:25;;;;;;;2.03;1.40;;;23.10;32.00;;;;;;5056612;28;20209;-48
2021/05/02 00:58:51;;;;;;;1.93;1.40;;;23.10;32.00;;;;;;5051731;28;20221;-44
2021/05/02 01:01:17;;;;;;;1.60;1.50;;;23.10;31.90;;;;;;5052678;28;20247;-41
2021/05/02 01:03:43;;;;;;;1.87;1.20;;;23.10;32.10;;;;;;5052357;28;20201;-41
2021/05/02 01:06:09;;;;;;;1.77;1.47;;;23.10;31.90;;;;;;5055013;28;20215;-44
2021/05/02 01:08:35;;;;;;;1.40;1.30;;;23.10;32.00;;;;;;5062655;28;20693;-42
2021/05/02 01:11:01;;;;;;;1.40;1.30;;;23.10;31.90;;;;;;5058230;28;20244;-55
2021/05/02 01:13:27;;;;;;;1.50;1.40;;;23.10;32.00;;;;;;5058339;28;20205;-43
2021/05/02 01:15:58;;;;;;;2.23;1.77;;;23.10;32.00;;;;;;5063473;28;20554;-49
2021/05/02 01:18:24;;;;;;;1.43;1.33;;;23.10;31.90;;;;;;5057369;28;20278;-40
2021/05/02 01:20:50;;;;;;;1.50;1.40;;;23.10;31.90;;;;;;5062591;28;20228;-51
2021/05/02 01:23:16;;;;;;;1.30;1.20;;;23.10;31.90;;;;;;5053339;28;20246;-45
2021/05/02 01:25:42;;;;;;;1.40;1.30;;;23.10;31.80;;;;;;5064183;28;20202;-44
2021/05/02 01:28:08;;;;;;;2.03;1.30;;;23.10;31.90;;;;;;5063723;28;20650;-47
2021/05/02 01:30:34;;;;;;;1.45;1.33;;;23.10;32.00;;;;;;5052267;28;20209;-54
2021/05/02 01:33:00;;;;;;;1.70;1.50;;;23.10;31.90;;;;;;5051260;28;20259;-49
2021/05/02 01:35:26;;;;;;;1.50;1.40;;;23.10;31.90;;;;;;5056569;28;20221;-47
2021/05/02 01:37:52;;;;;;;1.63;1.45;;;23.10;31.90;;;;;;5058951;28;20224;-50
2021/05/02 01:40:18;;;;;;;1.40;1.30;;;23.10;31.90;;;;;;5050826;28;20206;-44
2021/05/02 01:42:43;;;;;;;1.77;1.35;;;23.10;31.90;;;;;;5049644;28;20209;-44
2021/05/02 01:45:09;;;;;;;1.40;1.30;;;23.10;32.00;;;;;;5054490;28;20566;-45
2021/05/02 01:47:37;;;;;;;1.73;1.63;;;23.10;31.80;;;;;;5050136;28;20248;-47
2021/05/02 01:50:03;;;;;;;1.40;1.30;;;23.10;32.00;;;;;;5053732;28;20267;-44
2021/05/02 01:52:29;;;;;;;1.45;1.35;;;23.10;32.00;;;;;;5051472;28;20201;-42
2021/05/02 01:54:55;;;;;;;1.43;1.20;;;23.10;32.00;;;;;;5049915;28;20255;-40
2021/05/02 01:57:21;;;;;;;1.52;1.42;;;23.10;32.00;;;;;;5050606;28;20225;-42
2021/05/02 01:59:47;;;;;;;1.73;1.63;;;23.10;32.00;;;;;;5056471;28;20209;-45
2021/05/02 02:02:13;;;;;;;1.50;1.40;;;23.10;32.00;;;;;;5054963;28;20202;-46
2021/05/02 02:04:39;;;;;;;1.40;1.30;;;23.10;32.10;;;;;;5050311;28;20502;-45
2021/05/02 02:07:05;;;;;;;1.73;1.50;;;23.10;31.90;;;;;;5054776;28;20653;-40
2021/05/02 02:09:31;;;;;;;1.37;1.20;;;23.10;32.30;;;;;;5050899;28;20197;-43
2021/05/02 02:11:57;;;;;;;1.40;1.30;;;23.10;31.90;;;;;;5053752;28;20252;-40
2021/05/02 02:14:23;;;;;;;2.20;1.60;;;23.10;31.90;;;;;;5049473;28;20606;-41
2021/05/02 02:16:49;;;;;;;1.40;1.30;;;23.10;31.90;;;;;;5048723;28;20256;-44
2021/05/02 02:19:15;;;;;;;1.75;1.42;;;23.10;31.90;;;;;;5050372;28;20380;-47
2021/05/02 02:21:41;;;;;;;1.65;1.38;;;23.10;31.90;;;;;;5053325;28;20208;-40
2021/05/02 02:24:07;;;;;;;1.33;1.23;;;23.10;32.10;;;;;;5031129;28;20210;-44
2021/05/02 02:26:33;;;;;;;1.50;1.40;;;23.10;31.90;;;;;;5055978;28;20208;-44
2021/05/02 02:28:59;;;;;;;1.40;1.30;;;23.10;31.80;;;;;;5070397;28;20205;-48
2021/05/02 02:31:25;;;;;;;1.50;1.40;;;23.10;31.90;;;;;;5054919;28;20295;-45
2021/05/02 02:33:51;;;;;;;1.30;1.20;;;23.10;31.90;;;;;;5050117;28;20574;-42
2021/05/02 02:36:17;;;;;;;1.10;1.10;;;23.10;31.90;;;;;;5056002;28;20215;-42
2021/05/02 02:38:43;;;;;;;1.13;1.13;;;23.10;32.00;;;;;;5070361;28;20201;-44
2021/05/02 02:41:09;;;;;;;1.40;1.30;;;23.10;31.90;;;;;;5055091;28;20201;-45
2021/05/02 02:43:35;;;;;;;1.50;1.40;;;23.10;31.80;;;;;;5050292;28;20221;-46
2021/05/02 02:46:01;;;;;;;1.60;1.50;;;23.10;32.00;;;;;;5053821;28;20232;-46
2021/05/02 02:48:27;;;;;;;1.48;1.20;;;23.10;32.00;;;;;;5056556;28;20224;-44
2021/05/02 02:50:53;;;;;;;1.90;1.23;;;23.10;32.10;;;;;;5056841;28;20206;-51
2021/05/02 02:53:19;;;;;;;1.17;1.10;;;23.10;32.00;;;;;;5057061;28;20194;-45
2021/05/02 02:55:45;;;;;;;1.30;1.20;;;23.10;32.20;;;;;;5050478;28;20237;-44
2021/05/02 02:58:11;;;;;;;1.13;1.03;;;23.10;32.10;;;;;;5065150;28;20224;-41
2021/05/02 03:00:37;;;;;;;1.20;1.20;;;23.10;32.00;;;;;;5060809;28;20198;-42
2021/05/02 03:03:03;;;;;;;0.90;0.90;;;23.10;32.20;;;;;;5061401;28;20206;-49
2021/05/02 03:05:29;;;;;;;1.33;1.25;;;23.10;32.00;;;;;;5050018;28;20723;-40
2021/05/02 03:07:55;;;;;;;1.50;1.40;;;23.10;32.10;;;;;;5050878;28;20226;-44
2021/05/02 03:10:21;;;;;;;1.35;1.20;;;23.10;32.00;;;;;;5060372;28;20508;-44
2021/05/02 03:12:47;;;;;;;1.85;1.30;;;23.10;32.00;;;;;;5058571;28;20544;-44
2021/05/02 03:15:13;;;;;;;1.65;1.20;;;23.10;32.00;;;;;;5060773;28;20299;-51
2021/05/02 03:17:39;;;;;;;1.95;1.20;;;23.10;32.20;;;;;;5061494;28;20271;-46
2021/05/02 03:20:05;;;;;;;1.40;1.20;;;23.10;32.40;;;;;;5072016;28;20228;-49
2021/05/02 03:22:31;;;;;;;1.17;1.10;;;23.20;32.50;;;;;;5061776;28;20204;-42
2021/05/02 03:24:57;;;;;;;1.20;1.10;;;23.20;32.50;;;;;;5060991;28;20206;-43
2021/05/02 03:27:23;;;;;;;1.30;1.20;;;23.10;32.40;;;;;;5059358;28;20217;-42
2021/05/02 03:29:49;;;;;;;1.65;1.15;;;23.20;32.50;;;;;;5072449;28;20212;-39
2021/05/02 03:32:15;;;;;;;1.67;1.20;;;23.10;32.40;;;;;;5056346;28;20204;-43
2021/05/02 03:34:41;;;;;;;2.20;1.23;;;23.10;32.40;;;;;;5065630;28;20226;-49
2021/05/02 03:37:07;;;;;;;1.52;1.30;;;23.10;32.40;;;;;;5052678;28;20253;-43
2021/05/02 03:39:33;;;;;;;1.30;1.20;;;23.10;32.20;;;;;;5054269;28;20617;-44
2021/05/02 03:41:59;;;;;;;1.30;1.20;;;23.10;32.10;;;;;;5053048;28;20198;-44
2021/05/02 03:44:25;;;;;;;1.30;1.20;;;23.10;32.20;;;;;;5068746;28;20742;-41
2021/05/02 03:46:51;;;;;;;1.40;1.27;;;23.10;32.10;;;;;;5068787;28;20236;-42
2021/05/02 03:49:17;;;;;;;1.37;1.20;;;23.10;32.00;;;;;;5055358;28;20193;-50
2021/05/02 03:51:43;;;;;;;1.37;1.20;;;23.10;32.00;;;;;;5049609;28;20206;-46
2021/05/02 03:54:09;;;;;;;1.30;1.15;;;23.10;31.90;;;;;;5055125;28;20228;-49
2021/05/02 03:56:35;;;;;;;1.40;1.30;;;23.10;32.10;;;;;;5056288;28;20230;-48
2021/05/02 03:59:01;;;;;;;1.23;1.13;;;23.10;31.90;;;;;;5054160;28;20202;-42
2021/05/02 04:01:27;;;;;;;1.20;1.10;;;23.10;32.00;;;;;;5053650;28;20232;-50
2021/05/02 04:03:53;;;;;;;1.00;1.00;;;23.10;32.00;;;;;;5063549;28;20200;-48
2021/05/02 04:06:19;;;;;;;1.50;1.40;;;23.10;31.90;;;;;;5060918;28;20889;-43
2021/05/02 04:08:45;;;;;;;1.58;1.48;;;23.10;31.90;;;;;;5053290;28;20219;-47
2021/05/02 04:11:11;;;;;;;1.23;1.13;;;23.10;32.00;;;;;;5056092;28;20576;-51
2021/05/02 04:13:37;;;;;;;1.30;1.20;;;23.10;32.00;;;;;;5071813;28;20197;-40
2021/05/02 04:16:03;;;;;;;1.42;1.33;;;23.20;32.10;;;;;;5063468;28;20635;-42
2021/05/02 04:18:29;;;;;;;1.30;1.20;;;23.10;32.00;;;;;;5073707;28;20197;-45
2021/05/02 04:20:55;;;;;;;2.88;1.13;;;23.10;32.10;;;;;;5067148;28;20201;-44
2021/05/02 04:23:21;;;;;;;1.10;1.10;;;23.10;32.00;;;;;;5071244;28;20209;-48
2021/05/02 04:25:47;;;;;;;1.23;1.17;;;23.10;32.20;;;;;;5063971;28;20202;-52
2021/05/02 04:28:13;;;;;;;1.83;1.50;;;23.10;32.10;;;;;;5051782;28;20202;-46
2021/05/02 04:30:39;;;;;;;1.30;1.20;;;23.10;31.90;;;;;;5051945;28;20205;-50
2021/05/02 04:33:05;;;;;;;1.15;1.05;;;23.10;31.90;;;;;;5053021;28;20214;-52
2021/05/02 04:35:31;;;;;;;1.42;1.33;;;23.20;32.00;;;;;;5051816;28;20221;-45
2021/05/02 04:37:57;;;;;;;2.03;1.30;;;23.20;32.00;;;;;;5052445;28;20589;-47
2021/05/02 04:40:23;;;;;;;1.98;1.50;;;23.20;31.90;;;;;;5064759;28;20197;-45
2021/05/02 04:42:48;;;;;;;1.30;1.20;;;23.10;31.90;;;;;;5053032;28;20209;-53
2021/05/02 04:45:14;;;;;;;1.17;1.08;;;23.20;31.90;;;;;;5058487;28;20268;-52
2021/05/02 04:47:41;;;;;;;1.20;1.10;;;23.20;32.00;;;;;;5046177;28;20225;-51
2021/05/02 04:50:07;;;;;;;1.43;1.30;;;23.20;32.00;;;;;;5059132;28;20256;-47
2021/05/02 04:52:33;;;;;;;1.05;1.05;;;23.10;31.90;;;;;;5051893;28;20301;-47
2021/05/02 04:54:59;;;;;;;1.40;1.30;;;23.20;32.00;;;;;;5065452;28;20244;-49
2021/05/02 04:57:24;;;;;;;1.40;1.30;;;23.20;32.10;;;;;;5064911;28;20642;-43
2021/05/02 04:59:50;;;;;;;1.40;1.17;;;23.20;32.00;;;;;;5058055;28;20259;-43
2021/05/02 05:02:16;;;;;;;1.52;1.10;;;23.20;32.00;;;;;;5052529;28;20618;-41
2021/05/02 05:04:42;;;;;;;1.23;1.13;;;23.20;32.10;;;;;;5062949;28;20197;-48
2021/05/02 05:07:08;;;;;;;1.05;1.05;;;23.10;32.00;;;;;;5059389;28;20225;-45
2021/05/02 05:09:34;;;;;;;1.07;1.00;;;23.20;32.00;;;;;;5044592;28;20206;-48
2021/05/02 05:12:00;;;;;;;1.20;1.10;;;23.20;32.00;;;;;;5051947;28;20209;-46
2021/05/02 05:14:26;;;;;;;1.23;1.08;;;23.10;32.00;;;;;;5052473;28;20697;-46
2021/05/02 05:16:54;;;;;;;1.30;1.20;;;23.10;32.00;;;;;;5065268;28;20285;-41
2021/05/02 05:19:20;;;;;;;1.13;1.02;;;23.10;32.10;;;;;;5051320;28;20543;-46
2021/05/02 05:21:46;;;;;;;1.30;1.10;;;23.10;32.10;;;;;;5065908;28;20300;-40
2021/05/02 05:24:12;;;;;;;1.88;1.27;;;23.10;31.90;;;;;;5052102;28;20263;-40
2021/05/02 05:26:38;;;;;;;1.40;1.30;;;23.20;32.00;;;;;;5062412;28;20635;-47
2021/05/02 05:29:04;;;;;;;1.20;1.10;;;23.20;32.10;;;;;;5052011;28;20206;-47
2021/05/02 05:31:30;;;;;;;1.20;1.10;;;23.20;32.10;;;;;;5063085;28;20561;-43
2021/05/02 05:33:56;;;;;;;2.38;1.10;;;23.20;32.00;;;;;;5053409;28;20225;-40
2021/05/02 05:36:22;;;;;;;1.33;1.10;;;23.20;32.00;;;;;;5061154;28;20228;-44
2021/05/02 05:38:48;;;;;;;1.20;1.10;;;23.20;32.00;;;;;;5053401;28;20571;-41
2021/05/02 05:41:14;;;;;;;1.00;1.00;;;23.20;32.00;;;;;;5059868;28;20294;-40
2021/05/02 05:43:40;;;;;;;1.15;1.15;;;23.20;32.00;;;;;;5055648;28;20201;-41
2021/05/02 05:46:06;;;;;;;0.90;0.90;;;23.20;32.00;;;;;;5058271;28;20255;-42
2021/05/02 05:48:33;;;;;;;1.10;1.05;;;23.20;32.20;;;;;;5055734;28;20217;-46
2021/05/02 05:50:59;;;;;;;1.17;1.13;;;23.20;32.10;;;;;;5056780;28;20197;-40
2021/05/02 05:53:25;;;;;;;1.50;1.10;;;23.20;32.00;;;;;;5047245;28;20202;-40
2021/05/02 05:55:56;;;;;;;1.67;1.30;;;23.20;32.00;;;;;;5044010;28;20258;-44
2021/05/02 05:58:23;;;;;;;0.90;0.90;;;23.20;32.00;;;;;;5057200;28;20260;-47
2021/05/02 06:00:49;;;;;;;1.85;1.05;;;23.20;31.90;;;;;;5053279;28;20229;-45
2021/05/02 06:03:15;;;;;;;1.45;1.35;;;23.20;31.90;;;;;;5052413;28;20665;-43
2021/05/02 06:05:41;;;;;;;1.40;1.07;;;23.20;32.00;;;;;;5064259;28;20225;-42
2021/05/02 06:08:07;;;;;;;1.20;1.10;;;23.20;32.10;;;;;;5071028;28;20213;-46
2021/05/02 06:10:33;;;;;;;1.17;1.10;;;23.20;32.00;;;;;;5058170;28;20197;-55
2021/05/02 06:12:59;;;;;;;1.03;1.00;;;23.20;32.00;;;;;;5050406;28;20204;-47
2021/05/02 06:15:25;;;;;;;1.30;1.20;;;23.20;32.00;;;;;;5050554;28;20700;-44
2021/05/02 06:17:51;;;;;;;1.10;1.00;;;23.20;32.00;;;;;;5065022;28;20196;-47
2021/05/02 06:20:17;;;;;;;1.50;1.20;;;23.20;32.00;;;;;;5050473;28;20610;-45
2021/05/02 06:22:43;;;;;;;1.50;1.40;;;23.20;32.20;;;;;;5049484;28;20309;-43
2021/05/02 06:25:09;;;;;;;1.33;1.17;;;23.20;32.10;;;;;;5049939;28;20217;-45
2021/05/02 06:27:35;;;;;;;0.95;0.95;;;23.20;32.00;;;;;;5052951;28;20221;-40
2021/05/02 06:30:01;;;;;;;1.33;1.10;;;23.20;32.00;;;;;;5033002;28;20790;-41
2021/05/02 06:32:27;;;;;;;1.47;1.20;;;23.20;32.00;;;;;;5052498;28;20201;-40
2021/05/02 06:34:56;;;;;;;1.50;1.00;;;23.20;32.00;;;;;;5071547;28;20256;-42
2021/05/02 06:37:22;;;;;;;1.15;1.10;;;23.20;32.10;;;;;;5063532;28;20221;-47
2021/05/02 06:39:48;;;;;;;1.75;0.95;;;23.20;32.10;;;;;;5050841;28;20198;-49
2021/05/02 06:42:14;;;;;;;1.00;1.00;;;23.20;32.20;;;;;;5059093;28;20205;-43
2021/05/02 06:44:40;;;;;;;1.00;1.00;;;23.20;32.10;;;;;;5050627;28;20246;-44
2021/05/02 06:47:06;;;;;;;1.17;1.07;;;23.20;32.00;;;;;;5063854;28;20285;-47
2021/05/02 06:49:32;;;;;;;1.20;1.10;;;23.20;32.10;;;;;;5051014;28;20307;-46
2021/05/02 06:51:58;;;;;;;0.95;0.95;;;23.20;32.00;;;;;;5061315;28;20197;-43
2021/05/02 06:54:24;;;;;;;1.00;1.00;;;23.20;32.00;;;;;;5065064;28;20245;-44
2021/05/02 06:56:50;;;;;;;1.77;1.20;;;23.20;32.00;;;;;;5053657;28;20225;-47
2021/05/02 06:59:17;;;;;;;2.70;1.30;;;23.20;34.10;;;;;;5063066;28;20200;-47
2021/05/02 07:01:43;;;;;;;2.35;1.10;;;23.20;33.50;;;;;;5059871;28;20201;-45
2021/05/02 07:04:09;;;;;;;3.83;1.00;;;23.20;33.60;;;;;;5056218;28;20674;-43
2021/05/02 07:06:35;;;;;;;2.72;1.30;;;23.20;34.10;;;;;;5059424;28;20278;-43
2021/05/02 07:09:01;;;;;;;1.33;1.02;;;23.20;34.40;;;;;;5071035;28;20653;-43
2021/05/02 07:11:27;;;;;;;1.27;1.17;;;23.10;34.50;;;;;;5074745;28;20203;-43
2021/05/02 07:13:53;;;;;;;1.17;1.07;;;23.20;34.80;;;;;;5058639;28;20540;-43
2021/05/02 07:16:20;;;;;;;0.90;0.85;;;23.10;34.90;;;;;;5069759;28;20226;-40
2021/05/02 07:18:47;;;;;;;1.85;1.15;;;23.10;35.00;;;;;;5054034;28;20267;-51
2021/05/02 07:21:14;;;;;;;1.27;1.17;;;23.10;35.10;;;;;;5055855;28;20197;-44
2021/05/02 07:23:40;;;;;;;3.03;1.17;;;23.10;35.20;;;;;;5048561;28;20582;-44
2021/05/02 07:26:06;;;;;;;2.10;1.00;;;23.20;35.00;;;;;;5052774;28;20222;-41
2021/05/02 07:28:32;;;;;;;1.80;1.10;;;23.20;34.50;;;;;;5055188;28;20198;-43
2021/05/02 07:30:58;;;;;;;1.92;1.40;;;23.20;34.70;;;;;;5063917;28;20209;-42
2021/05/02 07:33:26;;;;;;;2.63;1.35;;;23.20;34.50;;;;;;5059404;28;20193;-42
2021/05/02 07:35:52;;;;;;;3.30;1.20;;;23.20;34.70;;;;;;5068900;28;20261;-40
2021/05/02 07:38:18;;;;;;;2.60;1.20;;;23.20;34.60;;;;;;5053528;28;20285;-41
2021/05/02 07:40:44;;;;;;;2.95;1.50;;;23.20;34.70;;;;;;5054059;28;20220;-44
2021/05/02 07:43:10;;;;;;;5.55;2.13;;;23.20;35.20;;;;;;5057768;28;20672;-45
2021/05/02 07:45:36;;;;;;;5.38;1.50;;;23.20;36.30;;;;;;5062291;28;20236;-41
2021/05/02 07:48:02;;;;;;;3.30;1.55;;;23.30;35.00;;;;;;5052840;28;20217;-43
2021/05/02 07:50:28;;;;;;;5.13;1.85;;;23.30;34.80;;;;;;5069268;28;20236;-47
2021/05/02 07:52:54;;;;;;;7.38;1.98;;;23.20;34.90;;;;;;5051290;28;20205;-43
2021/05/02 07:55:20;;;;;;;7.78;1.95;;;23.20;36.30;;;;;;5043485;28;20568;-41
2021/05/02 07:57:46;;;;;;;8.65;2.42;;;23.20;37.00;;;;;;5064808;28;20201;-52
2021/05/02 08:00:12;;;;;;;3.05;1.90;;;23.20;37.40;;;;;;5061266;28;20209;-51
2021/05/02 08:02:40;;;;;;;4.63;1.60;;;23.20;37.30;;;;;;5055180;28;20642;-44
2021/05/02 08:05:06;;;;;;;5.13;1.80;;;23.20;37.20;;;;;;5066728;28;20231;-47
2021/05/02 08:07:32;;;;;;;4.82;4.43;;;23.20;37.30;;;;;;5060301;28;20198;-40
2021/05/02 08:09:58;;;;;;;6.77;5.30;;;22.50;29.70;;;;;;5053415;28;20197;-50
2021/05/02 08:12:24;;;;;;;5.60;5.10;;;17.50;31.40;;;;;;5048842;28;20206;-44
2021/05/02 08:14:52;;;;;;;3.90;3.60;;;15.50;37.80;;;;;;5054316;28;20225;-41
2021/05/02 08:17:18;;;;;;;3.13;2.60;;;18.20;34.70;;;;;;5051786;28;20217;-41
2021/05/02 08:19:44;;;;;;;2.77;2.53;;;19.70;33.40;;;;;;5057643;28;20565;-43
2021/05/02 08:22:10;;;;;;;2.90;2.40;;;20.70;32.60;;;;;;5052120;28;20554;-39
2021/05/02 08:24:36;;;;;;;2.40;2.20;;;21.20;32.30;;;;;;5068475;28;20205;-43
2021/05/02 08:27:02;;;;;;;2.50;2.30;;;21.60;32.20;;;;;;5066691;28;20217;-40
2021/05/02 08:29:28;;;;;;;2.40;2.20;;;21.80;32.10;;;;;;5056652;28;20208;-43
2021/05/02 08:31:54;;;;;;;2.20;2.00;;;21.90;32.00;;;;;;5049371;28;20203;-41
2021/05/02 08:34:20;;;;;;;1.80;1.70;;;22.00;31.80;;;;;;5063811;28;20628;-47
2021/05/02 08:36:46;;;;;;;2.30;2.10;;;22.10;31.90;;;;;;5065548;28;20396;-44
2021/05/02 08:39:12;;;;;;;2.43;2.23;;;22.20;31.80;;;;;;5064900;28;20201;-43
2021/05/02 08:41:38;;;;;;;2.63;2.10;;;22.20;31.90;;;;;;5051906;28;20214;-39
2021/05/02 08:44:04;;;;;;;2.23;1.80;;;22.30;31.90;;;;;;5063896;28;20212;-42
2021/05/02 08:46:30;;;;;;;2.03;1.93;;;22.30;32.00;;;;;;5055570;28;20769;-46
2021/05/02 08:48:56;;;;;;;2.10;2.00;;;22.30;32.10;;;;;;5061228;28;20246;-42
2021/05/02 08:51:22;;;;;;;2.53;2.23;;;22.40;32.10;;;;;;5051417;28;20208;-42
2021/05/02 08:53:48;;;;;;;2.00;1.87;;;22.40;32.30;;;;;;5044145;28;20211;-48
2021/05/02 08:56:14;;;;;;;2.10;1.90;;;22.40;32.10;;;;;;5048604;28;20243;-51
2021/05/02 08:58:40;;;;;;;2.63;2.40;;;22.40;32.00;;;;;;5056129;28;20247;-47
2021/05/02 09:01:06;;;;;;;2.77;2.20;;;22.40;31.90;;;;;;5051068;28;20638;-49
2021/05/02 09:03:32;;;;;;;2.17;1.97;;;22.50;32.00;;;;;;5056426;28;20200;-50
2021/05/02 09:05:58;;;;;;;2.13;1.93;;;22.50;32.00;;;;;;5053585;28;20232;-48
2021/05/02 09:08:24;;;;;;;2.60;2.40;;;22.50;31.80;;;;;;5061540;28;20209;-44
2021/05/02 09:10:50;;;;;;;3.07;2.37;;;22.50;31.90;;;;;;5055351;28;20201;-51
2021/05/02 09:13:16;;;;;;;2.33;2.13;;;22.50;31.90;;;;;;5057136;28;20630;-41
2021/05/02 09:15:46;;;;;;;2.73;2.53;;;22.50;31.80;;;;;;5050000;28;20233;-48
2021/05/02 09:18:16;;;;;;;2.93;2.40;;;22.50;31.80;;;;;;5044987;28;20202;-41
2021/05/02 09:20:42;;;;;;;2.70;2.50;;;22.50;31.80;;;;;;5050985;28;20194;-42
2021/05/02 09:23:08;;;;;;;3.00;2.57;;;22.50;31.80;;;;;;5049030;28;20209;-49
2021/05/02 09:25:34;;;;;;;2.87;2.60;;;22.50;31.80;;;;;;5050750;28;20236;-48
2021/05/02 09:44:02;;;;;;;3.23;2.50;;;22.60;31.80;;;;;;5498546;22;20855;-36
2021/05/02 09:46:29;;;;;;;3.47;2.90;;;22.60;31.70;;;;;;5087626;28;20201;-38
2021/05/02 09:48:55;;;;;;;4.43;3.00;;;22.60;31.30;;;;;;5089123;28;20305;-42
2021/05/02 09:51:22;;;;;;;2.73;2.53;;;22.70;32.00;;;;;;5090077;28;20215;-47
2021/05/02 09:53:48;;;;;;;2.87;2.67;;;22.70;31.50;;;;;;5089183;28;20723;-36
2021/05/02 09:56:14;;;;;;;2.80;2.60;;;22.70;31.50;;;;;;5090285;28;20242;-38
2021/05/02 09:58:40;;;;;;;2.63;2.40;;;22.70;31.60;;;;;;5091246;28;20200;-43
2021/05/02 10:01:07;;;;;;;3.30;2.70;;;22.70;31.70;;;;;;5088071;28;20201;-36
2021/05/02 10:03:35;;;;;;;3.80;2.80;;;22.80;32.10;;;;;;5085716;28;20688;-36
2021/05/02 10:06:02;;;;;;;3.73;2.50;;;22.70;31.80;;;;;;5086376;28;20297;-35
2021/05/02 10:08:28;;;;;;;3.03;2.47;;;22.70;32.00;;;;;;5088129;28;20286;-35
2021/05/02 10:10:54;;;;;;;3.27;2.70;;;22.70;32.00;;;;;;5089022;28;20227;-42
2021/05/02 10:13:20;;;;;;;3.53;3.07;;;22.70;32.70;;;;;;5088290;28;20273;-37
2021/05/02 10:15:46;;;;;;;3.20;2.50;;;22.70;32.80;;;;;;5086853;28;20727;-38
2021/05/02 10:18:12;;;;;;;2.70;2.50;;;22.70;32.60;;;;;;5080542;28;20201;-37
2021/05/02 10:20:38;;;;;;;3.00;2.80;;;22.70;32.30;;;;;;5085089;28;20212;-36
2021/05/02 10:23:04;;;;;;;3.00;2.80;;;22.70;32.00;;;;;;5088436;28;20313;-42
2021/05/02 10:25:30;;;;;;;5.50;3.10;;;22.70;32.10;;;;;;5087721;28;20290;-40
2021/05/02 10:27:55;;;;;;;2.83;2.30;;;22.70;32.00;;;;;;5089559;28;20216;-37
2021/05/02 10:30:21;;;;;;;2.57;2.37;;;22.70;32.00;;;;;;5087781;28;20231;-38
2021/05/02 10:32:47;;;;;;;2.47;2.27;;;22.70;32.10;;;;;;5088507;28;20699;-39
2021/05/02 10:35:13;;;;;;;2.70;2.50;;;22.70;32.00;;;;;;5088733;28;20219;-36
2021/05/02 10:37:40;;;;;;;2.33;2.10;;;22.70;31.80;;;;;;5089194;28;20606;-38
2021/05/02 10:40:06;;;;;;;3.20;2.33;;;22.70;31.80;;;;;;5087316;28;21147;-39
2021/05/02 10:42:32;;;;;;;2.93;2.13;;;22.70;31.80;;;;;;5086801;28;20243;-38
2021/05/02 10:44:58;;;;;;;3.03;2.00;;;22.70;32.00;;;;;;5088240;28;20212;-36
2021/05/02 10:47:24;;;;;;;2.63;2.17;;;22.70;31.70;;;;;;5089691;28;20238;-39
2021/05/02 10:49:50;;;;;;;2.33;2.13;;;22.70;31.40;;;;;;5087920;28;20204;-40
2021/05/02 10:52:16;;;;;;;2.60;2.40;;;22.70;31.40;;;;;;5082401;28;20197;-38
2021/05/02 10:54:43;;;;;;;2.87;2.37;;;22.70;31.30;;;;;;5083910;28;20289;-36
2021/05/02 10:57:09;;;;;;;2.70;2.43;;;22.70;31.20;;;;;;5089411;28;20236;-37
2021/05/02 10:59:35;;;;;;;2.63;2.17;;;22.70;31.30;;;;;;5087475;28;20196;-41
2021/05/02 11:02:01;;;;;;;2.30;2.20;;;22.70;31.20;;;;;;5083217;28;20208;-47
2021/05/02 11:04:27;;;;;;;3.60;2.23;;;22.70;31.10;;;;;;5084734;28;20235;-39
2021/05/02 11:06:56;;;;;;;1.80;1.70;;;22.70;31.30;;;;;;5088911;28;20196;-50
2021/05/02 11:09:22;;;;;;;1.67;1.57;;;22.80;31.20;;;;;;5088048;28;20249;-45
2021/05/02 11:11:49;;;;;;;2.87;2.10;;;23.00;31.30;;;;;;5085990;28;20212;-38
2021/05/02 11:14:18;;;;;;;1.60;1.50;;;23.10;31.90;;;;;;5081756;28;20590;-39
2021/05/02 11:16:44;;;;;;;2.10;1.40;;;23.20;31.80;;;;;;5086142;28;20210;-43
2021/05/02 11:19:11;;;;;;;4.47;2.40;;;23.20;32.50;;;;;;5088683;28;20203;-52
2021/05/02 11:21:37;;;;;;;3.87;2.00;;;23.20;32.80;;;;;;5089388;28;20291;-45
2021/05/02 11:24:03;;;;;;;3.60;2.40;;;23.30;32.60;;;;;;5085988;28;20231;-39
2021/05/02 11:26:29;;;;;;;3.83;2.70;;;23.30;32.60;;;;;;5089640;28;20205;-38
2021/05/02 11:29:04;;;;;;;9.45;3.45;;;23.30;34.70;;;;;;5082213;28;20208;-36
2021/05/02 11:31:30;;;;;;;5.87;2.93;;;23.30;34.30;;;;;;5085150;28;20229;-41
2021/05/02 11:33:56;;;;;;;6.20;3.43;;;23.30;35.20;;;;;;5083551;28;20695;-47
2021/05/02 11:36:22;;;;;;;7.97;3.65;;;23.30;34.90;;;;;;5087445;28;20242;-35
2021/05/02 11:38:48;;;;;;;8.73;3.50;;;23.30;35.20;;;;;;5089324;28;20271;-36
2021/05/02 11:41:14;;;;;;;5.40;3.50;;;23.30;35.30;;;;;;5086493;28;20238;-49
2021/05/02 11:43:40;;;;;;;5.60;3.22;;;23.30;35.80;;;;;;5084068;28;20216;-44
2021/05/02 11:46:15;;;;;;;7.50;3.10;;;23.30;35.20;;;;;;5082146;28;20239;-45
2021/05/02 11:48:42;;;;;;;6.83;3.03;;;23.30;35.70;;;;;;5083703;28;20238;-41
2021/05/02 11:51:08;;;;;;;5.43;3.20;;;23.30;35.70;;;;;;5082155;28;20274;-42
2021/05/02 11:53:34;;;;;;;5.30;3.20;;;23.30;35.60;;;;;;5080880;28;20718;-37
2021/05/02 11:56:01;;;;;;;6.70;3.00;;;23.30;35.20;;;;;;5088505;28;20231;-37
2021/05/02 11:58:28;;;;;;;4.45;3.05;;;23.30;35.50;;;;;;5091250;28;20536;-40
2021/05/02 12:00:54;;;;;;;5.50;2.90;;;23.30;35.40;;;;;;5082728;28;20209;-50
2021/05/02 12:03:19;;;;;;;5.28;3.00;;;23.30;35.40;;;;;;5082823;28;20662;-41
2021/05/02 12:05:45;;;;;;;6.82;3.47;;;23.30;35.70;;;;;;5083871;28;20205;-41
2021/05/02 12:08:11;;;;;;;6.20;2.85;;;23.30;35.50;;;;;;5086348;28;20955;-45
2021/05/02 12:10:37;;;;;;;4.25;3.00;;;23.30;35.00;;;;;;5083450;28;20200;-39
2021/05/02 12:13:05;;;;;;;6.83;3.23;;;23.30;35.00;;;;;;5083355;28;20526;-37
2021/05/02 12:15:31;;;;;;;8.63;3.75;;;23.40;34.70;;;;;;5082299;28;20231;-48
2021/05/02 12:17:57;;;;;;;4.95;2.78;;;23.40;35.00;;;;;;5081787;28;20196;-37
2021/05/02 12:20:23;;;;;;;6.85;3.17;;;23.40;34.70;;;;;;5083649;28;20676;-43
2021/05/02 12:22:49;;;;;;;5.73;2.80;;;23.40;34.50;;;;;;5089522;28;20228;-42
2021/05/02 12:25:15;;;;;;;6.13;2.97;;;23.40;34.30;;;;;;5092970;28;20486;-40
2021/05/02 12:27:41;;;;;;;4.38;2.80;;;23.40;34.20;;;;;;5091243;28;20196;-40
2021/05/02 12:30:07;;;;;;;4.78;2.75;;;23.40;34.40;;;;;;5084268;28;20208;-36
2021/05/02 12:32:33;;;;;;;5.68;2.85;;;23.50;34.40;;;;;;5080956;28;20228;-39
2021/05/02 12:34:59;;;;;;;6.20;2.75;;;23.40;34.10;;;;;;5082349;28;20242;-44
2021/05/02 12:37:26;;;;;;;4.75;2.70;;;23.50;34.10;;;;;;5081987;28;20196;-36
2021/05/02 12:39:52;;;;;;;6.18;2.88;;;23.50;34.10;;;;;;5080728;28;20686;-38
2021/05/02 12:42:18;;;;;;;5.95;3.17;;;23.40;34.00;;;;;;5082385;28;20200;-40
2021/05/02 12:44:44;;;;;;;5.70;2.90;;;23.50;34.20;;;;;;5082009;28;20204;-41
2021/05/02 12:47:10;;;;;;;6.43;3.10;;;23.40;34.10;;;;;;5081959;28;20265;-36
2021/05/02 12:49:36;;;;;;;4.68;2.95;;;23.40;34.30;;;;;;5081599;28;20205;-41
2021/05/02 12:52:02;;;;;;;7.73;2.80;;;23.50;35.00;;;;;;5092183;28;20200;-44
2021/05/02 12:54:28;;;;;;;5.47;2.95;;;23.40;34.60;;;;;;5085043;28;20220;-36
2021/05/02 12:56:54;;;;;;;4.50;2.95;;;23.40;34.90;;;;;;5091849;28;20675;-40